sensor_id;sensor_type;location;lat;lon;timestamp;temperature;humidity
22787;DHT22;63134;52.020;4.714;2023-02-03T00:00:18;10.90;92.50
22787;DHT22;63134;52.020;4.714;2023-02-03T00:03:04;10.90;92.50
22787;DHT22;63134;52.020;4.714;2023-02-03T00:05:49;10.80;92.50
22787;DHT22;63134;52.020;4.714;2023-02-03T00:08:37;10.80;92.50
22787;DHT22;63134;52.020;4.714;2023-02-03T00:11:29;10.80;92.50
22787;DHT22;63134;52.020;4.714;2023-02-03T00:14:15;10.80;92.50
22787;DHT22;63134;52.020;4.714;2023-02-03T00:17:01;10.80;92.50
22787;DHT22;63134;52.020;4.714;2023-02-03T00:19:46;10.80;92.50
22787;DHT22;63134;52.020;4.714;2023-02-03T00:22:32;10.70;92.60
22787;DHT22;63134;52.020;4.714;2023-02-03T00:25:17;10.70;92.50
22787;DHT22;63134;52.020;4.714;2023-02-03T00:28:03;10.50;92.60
22787;DHT22;63134;52.020;4.714;2023-02-03T00:30:49;10.50;92.70
22787;DHT22;63134;52.020;4.714;2023-02-03T00:33:38;10.50;92.90
22787;DHT22;63134;52.020;4.714;2023-02-03T00:36:25;10.60;93.00
22787;DHT22;63134;52.020;4.714;2023-02-03T00:39:11;10.60;93.00
22787;DHT22;63134;52.020;4.714;2023-02-03T00:41:56;10.60;93.00
22787;DHT22;63134;52.020;4.714;2023-02-03T00:44:42;10.60;93.00
22787;DHT22;63134;52.020;4.714;2023-02-03T00:47:27;10.60;93.00
22787;DHT22;63134;52.020;4.714;2023-02-03T00:50:14;10.60;93.00
22787;DHT22;63134;52.020;4.714;2023-02-03T00:52:59;10.60;93.00
22787;DHT22;63134;52.020;4.714;2023-02-03T00:55:45;10.60;93.00
22787;DHT22;63134;52.020;4.714;2023-02-03T00:58:30;10.60;93.00
22787;DHT22;63134;52.020;4.714;2023-02-03T01:01:21;10.60;93.00
22787;DHT22;63134;52.020;4.714;2023-02-03T01:04:07;10.70;93.00
22787;DHT22;63134;52.020;4.714;2023-02-03T01:06:55;10.70;93.00
22787;DHT22;63134;52.020;4.714;2023-02-03T01:09:42;10.70;93.00
22787;DHT22;63134;52.020;4.714;2023-02-03T01:12:29;10.70;92.90
22787;DHT22;63134;52.020;4.714;2023-02-03T01:15:17;10.70;93.20
22787;DHT22;63134;52.020;4.714;2023-02-03T01:18:03;10.70;92.80
22787;DHT22;63134;52.020;4.714;2023-02-03T01:20:48;10.70;92.80
22787;DHT22;63134;52.020;4.714;2023-02-03T01:23:35;10.70;92.70
22787;DHT22;63134;52.020;4.714;2023-02-03T01:26:23;10.70;92.70
22787;DHT22;63134;52.020;4.714;2023-02-03T01:29:11;10.80;92.70
22787;DHT22;63134;52.020;4.714;2023-02-03T01:32:00;10.80;92.60
22787;DHT22;63134;52.020;4.714;2023-02-03T01:34:48;10.80;92.60
22787;DHT22;63134;52.020;4.714;2023-02-03T01:37:33;10.80;92.40
22787;DHT22;63134;52.020;4.714;2023-02-03T01:40:19;10.80;92.40
22787;DHT22;63134;52.020;4.714;2023-02-03T01:43:10;10.80;92.20
22787;DHT22;63134;52.020;4.714;2023-02-03T01:45:56;10.80;92.20
22787;DHT22;63134;52.020;4.714;2023-02-03T01:48:42;10.80;92.00
22787;DHT22;63134;52.020;4.714;2023-02-03T01:51:29;10.80;92.00
22787;DHT22;63134;52.020;4.714;2023-02-03T01:54:22;10.80;91.90
22787;DHT22;63134;52.020;4.714;2023-02-03T01:57:15;10.90;91.90
22787;DHT22;63134;52.020;4.714;2023-02-03T02:00:04;10.90;91.70
22787;DHT22;63134;52.020;4.714;2023-02-03T02:02:58;10.90;91.50
22787;DHT22;63134;52.020;4.714;2023-02-03T02:06:00;10.90;91.30
22787;DHT22;63134;52.020;4.714;2023-02-03T02:08:50;10.90;91.20
22787;DHT22;63134;52.020;4.714;2023-02-03T02:11:36;11.00;91.20
22787;DHT22;63134;52.020;4.714;2023-02-03T02:14:21;11.00;91.00
22787;DHT22;63134;52.020;4.714;2023-02-03T02:20:32;11.00;91.20
22787;DHT22;63134;52.020;4.714;2023-02-03T02:23:56;11.00;90.70
22787;DHT22;63134;52.020;4.714;2023-02-03T02:26:58;11.00;90.80
22787;DHT22;63134;52.020;4.714;2023-02-03T02:33:04;11.00;90.80
22787;DHT22;63134;52.020;4.714;2023-02-03T02:36:40;11.00;90.80
22787;DHT22;63134;52.020;4.714;2023-02-03T02:39:39;11.00;90.80
22787;DHT22;63134;52.020;4.714;2023-02-03T02:42:36;11.00;91.00
22787;DHT22;63134;52.020;4.714;2023-02-03T02:45:30;11.00;91.00
22787;DHT22;63134;52.020;4.714;2023-02-03T02:48:25;11.00;91.10
22787;DHT22;63134;52.020;4.714;2023-02-03T02:51:14;11.00;91.00
22787;DHT22;63134;52.020;4.714;2023-02-03T02:54:04;11.00;91.00
22787;DHT22;63134;52.020;4.714;2023-02-03T02:56:59;11.10;91.10
22787;DHT22;63134;52.020;4.714;2023-02-03T02:59:47;11.00;91.00
22787;DHT22;63134;52.020;4.714;2023-02-03T03:02:35;11.00;91.00
22787;DHT22;63134;52.020;4.714;2023-02-03T03:05:21;11.00;91.00
22787;DHT22;63134;52.020;4.714;2023-02-03T03:08:10;11.00;91.00
22787;DHT22;63134;52.020;4.714;2023-02-03T03:10:57;11.00;90.90
22787;DHT22;63134;52.020;4.714;2023-02-03T03:13:48;11.00;90.90
22787;DHT22;63134;52.020;4.714;2023-02-03T03:16:37;11.00;90.90
22787;DHT22;63134;52.020;4.714;2023-02-03T03:19:32;11.00;90.90
22787;DHT22;63134;52.020;4.714;2023-02-03T03:22:22;11.00;90.90
22787;DHT22;63134;52.020;4.714;2023-02-03T03:25:17;11.00;90.80
22787;DHT22;63134;52.020;4.714;2023-02-03T03:28:07;11.00;90.80
22787;DHT22;63134;52.020;4.714;2023-02-03T03:30:56;11.10;90.80
22787;DHT22;63134;52.020;4.714;2023-02-03T03:33:42;11.00;90.70
22787;DHT22;63134;52.020;4.714;2023-02-03T03:36:42;11.00;90.70
22787;DHT22;63134;52.020;4.714;2023-02-03T03:39:36;11.10;90.70
22787;DHT22;63134;52.020;4.714;2023-02-03T03:42:33;11.10;90.60
22787;DHT22;63134;52.020;4.714;2023-02-03T03:48:20;11.10;90.50
22787;DHT22;63134;52.020;4.714;2023-02-03T03:54:20;11.10;90.60
22787;DHT22;63134;52.020;4.714;2023-02-03T03:57:14;11.10;90.60
22787;DHT22;63134;52.020;4.714;2023-02-03T04:00:05;11.10;90.80
22787;DHT22;63134;52.020;4.714;2023-02-03T04:03:05;11.00;90.70
22787;DHT22;63134;52.020;4.714;2023-02-03T04:05:52;11.00;90.70
22787;DHT22;63134;52.020;4.714;2023-02-03T04:08:41;11.10;90.70
22787;DHT22;63134;52.020;4.714;2023-02-03T04:11:26;11.10;90.70
22787;DHT22;63134;52.020;4.714;2023-02-03T04:14:35;11.00;90.70
22787;DHT22;63134;52.020;4.714;2023-02-03T04:17:23;11.00;90.70
22787;DHT22;63134;52.020;4.714;2023-02-03T04:20:09;11.00;90.80
22787;DHT22;63134;52.020;4.714;2023-02-03T04:22:54;11.00;90.80
22787;DHT22;63134;52.020;4.714;2023-02-03T04:25:40;11.00;90.80
22787;DHT22;63134;52.020;4.714;2023-02-03T04:28:25;11.00;90.90
22787;DHT22;63134;52.020;4.714;2023-02-03T04:31:11;11.00;90.90
22787;DHT22;63134;52.020;4.714;2023-02-03T04:33:56;11.00;91.00
22787;DHT22;63134;52.020;4.714;2023-02-03T04:36:42;11.00;91.20
22787;DHT22;63134;52.020;4.714;2023-02-03T04:39:27;11.00;90.90
22787;DHT22;63134;52.020;4.714;2023-02-03T04:42:13;11.00;90.90
22787;DHT22;63134;52.020;4.714;2023-02-03T04:44:59;11.00;90.80
22787;DHT22;63134;52.020;4.714;2023-02-03T04:47:44;11.00;90.80
22787;DHT22;63134;52.020;4.714;2023-02-03T04:50:30;11.00;90.80
22787;DHT22;63134;52.020;4.714;2023-02-03T04:53:21;11.10;90.80
22787;DHT22;63134;52.020;4.714;2023-02-03T04:56:09;11.10;90.70
22787;DHT22;63134;52.020;4.714;2023-02-03T04:58:55;11.00;90.70
22787;DHT22;63134;52.020;4.714;2023-02-03T05:01:41;11.10;90.60
22787;DHT22;63134;52.020;4.714;2023-02-03T05:04:29;11.10;90.60
22787;DHT22;63134;52.020;4.714;2023-02-03T05:07:22;11.00;90.60
22787;DHT22;63134;52.020;4.714;2023-02-03T05:10:09;11.10;90.60
22787;DHT22;63134;52.020;4.714;2023-02-03T05:12:55;11.10;90.60
22787;DHT22;63134;52.020;4.714;2023-02-03T05:15:40;11.00;90.60
22787;DHT22;63134;52.020;4.714;2023-02-03T05:18:26;11.10;90.60
22787;DHT22;63134;52.020;4.714;2023-02-03T05:21:11;11.00;90.50
22787;DHT22;63134;52.020;4.714;2023-02-03T05:23:57;11.10;90.60
22787;DHT22;63134;52.020;4.714;2023-02-03T05:26:42;11.00;90.50
22787;DHT22;63134;52.020;4.714;2023-02-03T05:29:28;11.00;90.60
22787;DHT22;63134;52.020;4.714;2023-02-03T05:32:13;11.00;90.60
22787;DHT22;63134;52.020;4.714;2023-02-03T05:34:59;11.00;90.50
22787;DHT22;63134;52.020;4.714;2023-02-03T05:37:44;11.00;90.60
22787;DHT22;63134;52.020;4.714;2023-02-03T05:40:30;11.00;90.60
22787;DHT22;63134;52.020;4.714;2023-02-03T05:43:34;11.00;90.60
22787;DHT22;63134;52.020;4.714;2023-02-03T05:46:22;11.00;90.70
22787;DHT22;63134;52.020;4.714;2023-02-03T05:49:11;11.00;90.70
22787;DHT22;63134;52.020;4.714;2023-02-03T05:51:56;11.00;90.70
22787;DHT22;63134;52.020;4.714;2023-02-03T05:54:45;11.00;90.70
22787;DHT22;63134;52.020;4.714;2023-02-03T05:57:30;11.00;90.70
22787;DHT22;63134;52.020;4.714;2023-02-03T06:00:17;11.00;90.70
22787;DHT22;63134;52.020;4.714;2023-02-03T06:03:03;11.00;90.60
22787;DHT22;63134;52.020;4.714;2023-02-03T06:05:49;11.10;90.90
22787;DHT22;63134;52.020;4.714;2023-02-03T06:08:34;11.10;90.50
22787;DHT22;63134;52.020;4.714;2023-02-03T06:11:22;11.10;90.50
22787;DHT22;63134;52.020;4.714;2023-02-03T06:14:11;11.10;90.50
22787;DHT22;63134;52.020;4.714;2023-02-03T06:16:58;11.10;90.40
22787;DHT22;63134;52.020;4.714;2023-02-03T06:19:48;11.10;90.40
22787;DHT22;63134;52.020;4.714;2023-02-03T06:22:34;11.10;90.40
22787;DHT22;63134;52.020;4.714;2023-02-03T06:25:26;11.10;90.30
22787;DHT22;63134;52.020;4.714;2023-02-03T06:28:12;11.10;90.40
22787;DHT22;63134;52.020;4.714;2023-02-03T06:30:58;11.10;90.50
22787;DHT22;63134;52.020;4.714;2023-02-03T06:33:44;11.00;90.40
22787;DHT22;63134;52.020;4.714;2023-02-03T06:36:29;11.00;90.50
22787;DHT22;63134;52.020;4.714;2023-02-03T06:39:15;11.00;90.70
22787;DHT22;63134;52.020;4.714;2023-02-03T06:42:01;11.00;90.70
22787;DHT22;63134;52.020;4.714;2023-02-03T06:44:50;11.00;90.80
22787;DHT22;63134;52.020;4.714;2023-02-03T06:47:39;11.00;90.80
22787;DHT22;63134;52.020;4.714;2023-02-03T06:50:29;11.00;90.80
22787;DHT22;63134;52.020;4.714;2023-02-03T06:53:15;11.10;90.80
22787;DHT22;63134;52.020;4.714;2023-02-03T06:56:00;11.10;90.80
22787;DHT22;63134;52.020;4.714;2023-02-03T06:58:47;11.10;90.90
22787;DHT22;63134;52.020;4.714;2023-02-03T07:01:32;11.10;90.90
22787;DHT22;63134;52.020;4.714;2023-02-03T07:04:19;11.10;90.90
22787;DHT22;63134;52.020;4.714;2023-02-03T07:07:11;11.10;90.90
22787;DHT22;63134;52.020;4.714;2023-02-03T07:09:56;11.10;90.90
22787;DHT22;63134;52.020;4.714;2023-02-03T07:12:42;11.10;91.00
22787;DHT22;63134;52.020;4.714;2023-02-03T07:15:28;11.20;91.00
22787;DHT22;63134;52.020;4.714;2023-02-03T07:18:13;11.20;90.90
22787;DHT22;63134;52.020;4.714;2023-02-03T07:21:20;11.20;90.90
22787;DHT22;63134;52.020;4.714;2023-02-03T07:24:05;11.20;91.00
22787;DHT22;63134;52.020;4.714;2023-02-03T07:26:51;11.20;90.80
22787;DHT22;63134;52.020;4.714;2023-02-03T07:29:40;11.20;90.90
22787;DHT22;63134;52.020;4.714;2023-02-03T07:32:25;11.30;90.80
22787;DHT22;63134;52.020;4.714;2023-02-03T07:35:10;11.30;90.90
22787;DHT22;63134;52.020;4.714;2023-02-03T07:37:56;11.30;90.80
22787;DHT22;63134;52.020;4.714;2023-02-03T07:40:41;11.30;90.80
22787;DHT22;63134;52.020;4.714;2023-02-03T07:43:27;11.30;90.80
22787;DHT22;63134;52.020;4.714;2023-02-03T07:46:12;11.30;90.80
22787;DHT22;63134;52.020;4.714;2023-02-03T07:48:58;11.30;90.70
22787;DHT22;63134;52.020;4.714;2023-02-03T07:51:46;11.40;90.70
22787;DHT22;63134;52.020;4.714;2023-02-03T07:54:37;11.40;90.80
22787;DHT22;63134;52.020;4.714;2023-02-03T07:57:27;11.40;90.80
22787;DHT22;63134;52.020;4.714;2023-02-03T08:00:14;11.40;90.80
22787;DHT22;63134;52.020;4.714;2023-02-03T08:03:03;11.40;90.80
22787;DHT22;63134;52.020;4.714;2023-02-03T08:05:49;11.40;90.80
22787;DHT22;63134;52.020;4.714;2023-02-03T08:08:35;11.40;90.80
22787;DHT22;63134;52.020;4.714;2023-02-03T08:11:21;11.40;90.70
22787;DHT22;63134;52.020;4.714;2023-02-03T08:14:08;11.40;90.70
22787;DHT22;63134;52.020;4.714;2023-02-03T08:16:54;11.40;90.70
22787;DHT22;63134;52.020;4.714;2023-02-03T08:19:39;11.50;90.80
22787;DHT22;63134;52.020;4.714;2023-02-03T08:22:25;11.50;90.60
22787;DHT22;63134;52.020;4.714;2023-02-03T08:25:13;11.50;90.50
22787;DHT22;63134;52.020;4.714;2023-02-03T08:27:59;11.60;90.50
22787;DHT22;63134;52.020;4.714;2023-02-03T08:30:47;11.70;90.50
22787;DHT22;63134;52.020;4.714;2023-02-03T08:33:32;11.70;90.30
22787;DHT22;63134;52.020;4.714;2023-02-03T08:36:18;11.70;90.10
22787;DHT22;63134;52.020;4.714;2023-02-03T08:39:04;11.70;90.20
22787;DHT22;63134;52.020;4.714;2023-02-03T08:41:50;11.70;90.20
22787;DHT22;63134;52.020;4.714;2023-02-03T08:44:35;11.80;90.20
22787;DHT22;63134;52.020;4.714;2023-02-03T08:47:23;11.80;90.00
22787;DHT22;63134;52.020;4.714;2023-02-03T08:50:09;11.80;89.90
22787;DHT22;63134;52.020;4.714;2023-02-03T08:52:55;11.80;89.60
22787;DHT22;63134;52.020;4.714;2023-02-03T08:55:40;11.80;89.60
22787;DHT22;63134;52.020;4.714;2023-02-03T08:58:26;11.80;89.70
22787;DHT22;63134;52.020;4.714;2023-02-03T09:01:13;11.80;89.70
22787;DHT22;63134;52.020;4.714;2023-02-03T09:03:59;11.90;89.70
22787;DHT22;63134;52.020;4.714;2023-02-03T09:06:49;11.90;89.90
22787;DHT22;63134;52.020;4.714;2023-02-03T09:09:38;12.00;89.50
22787;DHT22;63134;52.020;4.714;2023-02-03T09:12:23;12.00;89.30
22787;DHT22;63134;52.020;4.714;2023-02-03T09:15:09;12.10;89.10
22787;DHT22;63134;52.020;4.714;2023-02-03T09:17:57;12.10;89.00
22787;DHT22;63134;52.020;4.714;2023-02-03T09:20:42;12.20;89.00
22787;DHT22;63134;52.020;4.714;2023-02-03T09:23:28;12.20;88.60
22787;DHT22;63134;52.020;4.714;2023-02-03T09:26:15;12.20;88.40
22787;DHT22;63134;52.020;4.714;2023-02-03T09:29:01;12.30;88.00
22787;DHT22;63134;52.020;4.714;2023-02-03T09:31:48;12.30;87.90
22787;DHT22;63134;52.020;4.714;2023-02-03T09:34:37;12.30;88.40
22787;DHT22;63134;52.020;4.714;2023-02-03T09:37:24;12.40;88.00
22787;DHT22;63134;52.020;4.714;2023-02-03T09:40:19;12.40;87.50
22787;DHT22;63134;52.020;4.714;2023-02-03T09:46:20;12.50;87.40
22787;DHT22;63134;52.020;4.714;2023-02-03T09:49:19;12.50;87.30
22787;DHT22;63134;52.020;4.714;2023-02-03T09:55:18;12.70;87.20
22787;DHT22;63134;52.020;4.714;2023-02-03T10:01:02;12.90;86.30
22787;DHT22;63134;52.020;4.714;2023-02-03T10:04:03;12.90;85.70
22787;DHT22;63134;52.020;4.714;2023-02-03T10:07:20;12.90;85.30
22787;DHT22;63134;52.020;4.714;2023-02-03T10:13:28;13.00;84.50
22787;DHT22;63134;52.020;4.714;2023-02-03T10:19:43;13.30;84.30
22787;DHT22;63134;52.020;4.714;2023-02-03T10:22:33;13.30;83.60
22787;DHT22;63134;52.020;4.714;2023-02-03T10:25:30;13.40;83.70
22787;DHT22;63134;52.020;4.714;2023-02-03T10:28:23;13.40;83.00
22787;DHT22;63134;52.020;4.714;2023-02-03T10:31:18;13.50;83.10
22787;DHT22;63134;52.020;4.714;2023-02-03T10:34:12;13.60;82.60
22787;DHT22;63134;52.020;4.714;2023-02-03T10:37:03;13.60;82.30
22787;DHT22;63134;52.020;4.714;2023-02-03T10:39:56;13.60;81.80
22787;DHT22;63134;52.020;4.714;2023-02-03T10:42:46;13.70;81.70
22787;DHT22;63134;52.020;4.714;2023-02-03T10:45:50;13.70;81.60
22787;DHT22;63134;52.020;4.714;2023-02-03T10:48:36;13.80;81.50
22787;DHT22;63134;52.020;4.714;2023-02-03T10:51:23;13.80;81.20
22787;DHT22;63134;52.020;4.714;2023-02-03T10:54:32;13.80;80.70
22787;DHT22;63134;52.020;4.714;2023-02-03T10:57:17;13.90;80.80
22787;DHT22;63134;52.020;4.714;2023-02-03T11:00:21;13.90;80.80
22787;DHT22;63134;52.020;4.714;2023-02-03T11:03:22;14.00;80.20
22787;DHT22;63134;52.020;4.714;2023-02-03T11:06:12;14.00;80.60
22787;DHT22;63134;52.020;4.714;2023-02-03T11:08:59;14.10;80.10
22787;DHT22;63134;52.020;4.714;2023-02-03T11:11:44;14.10;80.00
22787;DHT22;63134;52.020;4.714;2023-02-03T11:14:36;14.10;79.50
22787;DHT22;63134;52.020;4.714;2023-02-03T11:17:26;14.20;79.50
22787;DHT22;63134;52.020;4.714;2023-02-03T11:20:15;14.10;79.30
22787;DHT22;63134;52.020;4.714;2023-02-03T11:23:02;14.10;79.50
22787;DHT22;63134;52.020;4.714;2023-02-03T11:25:48;14.10;79.40
22787;DHT22;63134;52.020;4.714;2023-02-03T11:28:41;14.10;79.20
22787;DHT22;63134;52.020;4.714;2023-02-03T11:31:30;14.00;79.40
22787;DHT22;63134;52.020;4.714;2023-02-03T11:34:28;13.90;79.90
22787;DHT22;63134;52.020;4.714;2023-02-03T11:37:32;14.00;80.00
22787;DHT22;63134;52.020;4.714;2023-02-03T11:40:27;13.90;80.00
22787;DHT22;63134;52.020;4.714;2023-02-03T11:43:16;13.90;80.10
22787;DHT22;63134;52.020;4.714;2023-02-03T11:46:05;13.80;80.10
22787;DHT22;63134;52.020;4.714;2023-02-03T11:49:15;13.80;80.40
22787;DHT22;63134;52.020;4.714;2023-02-03T11:55:40;13.60;81.00
22787;DHT22;63134;52.020;4.714;2023-02-03T11:58:38;13.60;81.30
22787;DHT22;63134;52.020;4.714;2023-02-03T12:08:09;13.60;81.10
22787;DHT22;63134;52.020;4.714;2023-02-03T12:11:28;13.60;81.50
22787;DHT22;63134;52.020;4.714;2023-02-03T12:30:05;13.90;80.80
22787;DHT22;63134;52.020;4.714;2023-02-03T12:32:57;13.90;80.50
22787;DHT22;63134;52.020;4.714;2023-02-03T12:39:05;13.90;80.90
22787;DHT22;63134;52.020;4.714;2023-02-03T12:42:01;13.90;80.70
22787;DHT22;63134;52.020;4.714;2023-02-03T12:44:58;14.00;80.60
22787;DHT22;63134;52.020;4.714;2023-02-03T12:47:51;14.00;80.50
22787;DHT22;63134;52.020;4.714;2023-02-03T12:50:57;14.00;80.40
22787;DHT22;63134;52.020;4.714;2023-02-03T12:53:52;14.00;80.10
22787;DHT22;63134;52.020;4.714;2023-02-03T12:56:45;14.10;80.40
22787;DHT22;63134;52.020;4.714;2023-02-03T12:59:39;14.20;80.30
22787;DHT22;63134;52.020;4.714;2023-02-03T13:02:28;14.20;80.00
22787;DHT22;63134;52.020;4.714;2023-02-03T13:05:25;14.10;79.80
22787;DHT22;63134;52.020;4.714;2023-02-03T13:08:40;14.00;80.00
22787;DHT22;63134;52.020;4.714;2023-02-03T13:14:59;13.90;80.40
22787;DHT22;63134;52.020;4.714;2023-02-03T13:18:04;13.70;80.90
22787;DHT22;63134;52.020;4.714;2023-02-03T13:20:53;13.60;81.50
22787;DHT22;63134;52.020;4.714;2023-02-03T13:23:43;13.50;82.10
22787;DHT22;63134;52.020;4.714;2023-02-03T13:29:31;13.30;82.90
22787;DHT22;63134;52.020;4.714;2023-02-03T13:32:41;13.20;83.20
22787;DHT22;63134;52.020;4.714;2023-02-03T13:35:43;13.10;84.40
22787;DHT22;63134;52.020;4.714;2023-02-03T13:38:44;13.00;84.90
22787;DHT22;63134;52.020;4.714;2023-02-03T13:41:51;12.90;85.50
22787;DHT22;63134;52.020;4.714;2023-02-03T13:44:38;12.80;86.20
22787;DHT22;63134;52.020;4.714;2023-02-03T13:47:27;12.70;86.80
22787;DHT22;63134;52.020;4.714;2023-02-03T13:50:25;12.60;87.50
22787;DHT22;63134;52.020;4.714;2023-02-03T13:53:23;12.50;88.00
22787;DHT22;63134;52.020;4.714;2023-02-03T13:56:23;12.50;88.40
22787;DHT22;63134;52.020;4.714;2023-02-03T14:05:37;12.30;89.70
22787;DHT22;63134;52.020;4.714;2023-02-03T14:23:28;12.10;90.80
22787;DHT22;63134;52.020;4.714;2023-02-03T14:26:22;12.00;90.70
22787;DHT22;63134;52.020;4.714;2023-02-03T14:29:31;12.00;90.80
22787;DHT22;63134;52.020;4.714;2023-02-03T14:32:16;12.00;90.90
22787;DHT22;63134;52.020;4.714;2023-02-03T14:35:15;12.00;90.90
22787;DHT22;63134;52.020;4.714;2023-02-03T14:38:08;12.00;90.90
22787;DHT22;63134;52.020;4.714;2023-02-03T14:41:04;12.00;90.90
22787;DHT22;63134;52.020;4.714;2023-02-03T14:44:02;12.00;90.80
22787;DHT22;63134;52.020;4.714;2023-02-03T14:47:08;12.00;90.80
22787;DHT22;63134;52.020;4.714;2023-02-03T14:50:15;12.10;90.80
22787;DHT22;63134;52.020;4.714;2023-02-03T14:53:26;12.10;90.80
22787;DHT22;63134;52.020;4.714;2023-02-03T14:59:56;12.10;90.70
22787;DHT22;63134;52.020;4.714;2023-02-03T15:06:03;12.10;90.80
22787;DHT22;63134;52.020;4.714;2023-02-03T15:08:49;12.10;90.80
22787;DHT22;63134;52.020;4.714;2023-02-03T15:11:44;12.00;90.70
22787;DHT22;63134;52.020;4.714;2023-02-03T15:14:29;12.00;90.80
22787;DHT22;63134;52.020;4.714;2023-02-03T15:17:25;12.10;90.80
22787;DHT22;63134;52.020;4.714;2023-02-03T15:20:35;12.00;90.80
22787;DHT22;63134;52.020;4.714;2023-02-03T15:23:28;12.00;90.80
22787;DHT22;63134;52.020;4.714;2023-02-03T15:26:24;12.00;90.80
22787;DHT22;63134;52.020;4.714;2023-02-03T15:32:17;12.00;90.90
22787;DHT22;63134;52.020;4.714;2023-02-03T15:35:05;12.00;91.00
22787;DHT22;63134;52.020;4.714;2023-02-03T15:37:58;12.00;91.00
22787;DHT22;63134;52.020;4.714;2023-02-03T15:40:51;12.00;91.00
22787;DHT22;63134;52.020;4.714;2023-02-03T15:43:46;12.00;91.00
22787;DHT22;63134;52.020;4.714;2023-02-03T15:46:42;12.00;91.00
22787;DHT22;63134;52.020;4.714;2023-02-03T15:49:42;12.00;91.00
22787;DHT22;63134;52.020;4.714;2023-02-03T15:52:28;12.00;91.00
22787;DHT22;63134;52.020;4.714;2023-02-03T15:55:21;12.00;91.00
22787;DHT22;63134;52.020;4.714;2023-02-03T15:58:17;12.00;91.00
22787;DHT22;63134;52.020;4.714;2023-02-03T16:01:08;12.00;91.00
22787;DHT22;63134;52.020;4.714;2023-02-03T16:04:11;12.00;91.00
22787;DHT22;63134;52.020;4.714;2023-02-03T16:06:58;11.90;91.00
22787;DHT22;63134;52.020;4.714;2023-02-03T16:09:45;11.90;91.00
22787;DHT22;63134;52.020;4.714;2023-02-03T16:12:31;11.90;91.00
22787;DHT22;63134;52.020;4.714;2023-02-03T16:15:26;11.80;91.00
22787;DHT22;63134;52.020;4.714;2023-02-03T16:18:16;11.80;91.10
22787;DHT22;63134;52.020;4.714;2023-02-03T16:21:03;11.70;91.00
22787;DHT22;63134;52.020;4.714;2023-02-03T16:23:52;11.70;91.20
22787;DHT22;63134;52.020;4.714;2023-02-03T16:26:39;11.60;91.30
22787;DHT22;63134;52.020;4.714;2023-02-03T16:29:28;11.60;91.40
22787;DHT22;63134;52.020;4.714;2023-02-03T16:32:32;11.60;91.50
22787;DHT22;63134;52.020;4.714;2023-02-03T16:35:39;11.50;91.60
22787;DHT22;63134;52.020;4.714;2023-02-03T16:38:47;11.50;91.60
22787;DHT22;63134;52.020;4.714;2023-02-03T16:41:52;11.40;91.60
22787;DHT22;63134;52.020;4.714;2023-02-03T16:44:56;11.40;91.70
22787;DHT22;63134;52.020;4.714;2023-02-03T16:48:02;11.30;91.70
22787;DHT22;63134;52.020;4.714;2023-02-03T16:51:13;11.30;91.70
22787;DHT22;63134;52.020;4.714;2023-02-03T16:54:00;11.30;91.80
22787;DHT22;63134;52.020;4.714;2023-02-03T16:56:45;11.20;91.80
22787;DHT22;63134;52.020;4.714;2023-02-03T16:59:32;11.20;91.70
22787;DHT22;63134;52.020;4.714;2023-02-03T17:02:17;11.20;91.80
22787;DHT22;63134;52.020;4.714;2023-02-03T17:05:03;11.20;91.80
22787;DHT22;63134;52.020;4.714;2023-02-03T17:07:48;11.10;91.80
22787;DHT22;63134;52.020;4.714;2023-02-03T17:10:36;11.10;91.70
22787;DHT22;63134;52.020;4.714;2023-02-03T17:13:22;11.10;91.70
22787;DHT22;63134;52.020;4.714;2023-02-03T17:16:21;11.10;91.60
22787;DHT22;63134;52.020;4.714;2023-02-03T17:19:11;11.10;91.60
22787;DHT22;63134;52.020;4.714;2023-02-03T17:21:56;11.10;91.50
22787;DHT22;63134;52.020;4.714;2023-02-03T17:24:42;11.10;91.40
22787;DHT22;63134;52.020;4.714;2023-02-03T17:27:28;11.10;91.30
22787;DHT22;63134;52.020;4.714;2023-02-03T17:30:14;11.00;91.10
22787;DHT22;63134;52.020;4.714;2023-02-03T17:33:05;11.10;91.30
22787;DHT22;63134;52.020;4.714;2023-02-03T17:36:04;11.10;91.20
22787;DHT22;63134;52.020;4.714;2023-02-03T17:38:54;11.10;91.10
22787;DHT22;63134;52.020;4.714;2023-02-03T17:41:58;11.10;91.10
22787;DHT22;63134;52.020;4.714;2023-02-03T17:45:02;11.10;91.00
22787;DHT22;63134;52.020;4.714;2023-02-03T17:48:05;11.10;91.00
22787;DHT22;63134;52.020;4.714;2023-02-03T17:51:11;11.10;91.10
22787;DHT22;63134;52.020;4.714;2023-02-03T17:54:18;11.10;91.00
22787;DHT22;63134;52.020;4.714;2023-02-03T17:57:03;11.10;91.10
22787;DHT22;63134;52.020;4.714;2023-02-03T17:59:50;11.10;91.10
22787;DHT22;63134;52.020;4.714;2023-02-03T18:02:39;11.10;91.10
22787;DHT22;63134;52.020;4.714;2023-02-03T18:05:26;11.10;91.10
22787;DHT22;63134;52.020;4.714;2023-02-03T18:08:13;11.10;91.20
22787;DHT22;63134;52.020;4.714;2023-02-03T18:11:00;11.10;91.20
22787;DHT22;63134;52.020;4.714;2023-02-03T18:13:48;11.10;91.40
22787;DHT22;63134;52.020;4.714;2023-02-03T18:16:34;11.10;91.40
22787;DHT22;63134;52.020;4.714;2023-02-03T18:19:20;11.10;91.50
22787;DHT22;63134;52.020;4.714;2023-02-03T18:22:06;11.10;91.50
22787;DHT22;63134;52.020;4.714;2023-02-03T18:24:51;11.10;91.50
22787;DHT22;63134;52.020;4.714;2023-02-03T18:27:37;11.10;91.60
22787;DHT22;63134;52.020;4.714;2023-02-03T18:30:22;11.10;91.60
22787;DHT22;63134;52.020;4.714;2023-02-03T18:33:08;11.10;91.60
22787;DHT22;63134;52.020;4.714;2023-02-03T18:35:57;11.10;91.60
22787;DHT22;63134;52.020;4.714;2023-02-03T18:38:44;11.10;91.60
22787;DHT22;63134;52.020;4.714;2023-02-03T18:41:30;11.10;91.60
22787;DHT22;63134;52.020;4.714;2023-02-03T18:44:15;11.10;91.60
22787;DHT22;63134;52.020;4.714;2023-02-03T18:47:01;11.10;91.60
22787;DHT22;63134;52.020;4.714;2023-02-03T18:49:51;11.10;91.60
22787;DHT22;63134;52.020;4.714;2023-02-03T18:52:37;11.10;91.60
22787;DHT22;63134;52.020;4.714;2023-02-03T18:55:22;11.10;91.60
22787;DHT22;63134;52.020;4.714;2023-02-03T18:58:12;11.10;91.50
22787;DHT22;63134;52.020;4.714;2023-02-03T19:01:00;11.10;91.50
22787;DHT22;63134;52.020;4.714;2023-02-03T19:03:45;11.10;91.50
22787;DHT22;63134;52.020;4.714;2023-02-03T19:06:33;11.10;91.50
22787;DHT22;63134;52.020;4.714;2023-02-03T19:09:18;11.10;91.50
22787;DHT22;63134;52.020;4.714;2023-02-03T19:12:09;11.10;91.60
22787;DHT22;63134;52.020;4.714;2023-02-03T19:14:56;11.10;91.50
22787;DHT22;63134;52.020;4.714;2023-02-03T19:17:41;11.10;91.50
22787;DHT22;63134;52.020;4.714;2023-02-03T19:20:27;11.10;91.60
22787;DHT22;63134;52.020;4.714;2023-02-03T19:23:19;11.10;91.50
22787;DHT22;63134;52.020;4.714;2023-02-03T19:26:08;11.10;91.60
22787;DHT22;63134;52.020;4.714;2023-02-03T19:28:57;11.10;91.60
22787;DHT22;63134;52.020;4.714;2023-02-03T19:31:42;11.10;91.60